sensor_id;sensor_type;location;lat;lon;timestamp;temperature;humidity
9699;DHT22;10089;47.876;8.346;2023-05-10T00:00:59;10.60;99.90
9699;DHT22;10089;47.876;8.346;2023-05-10T00:03:25;10.60;99.90
9699;DHT22;10089;47.876;8.346;2023-05-10T00:05:51;10.50;99.90
9699;DHT22;10089;47.876;8.346;2023-05-10T00:08:16;10.60;99.90
9699;DHT22;10089;47.876;8.346;2023-05-10T00:10:42;10.60;99.90
9699;DHT22;10089;47.876;8.346;2023-05-10T00:13:08;10.60;99.90
9699;DHT22;10089;47.876;8.346;2023-05-10T00:15:34;10.60;99.90
9699;DHT22;10089;47.876;8.346;2023-05-10T00:18:00;10.60;99.90
9699;DHT22;10089;47.876;8.346;2023-05-10T00:20:26;10.60;99.90
9699;DHT22;10089;47.876;8.346;2023-05-10T00:22:52;10.50;99.90
9699;DHT22;10089;47.876;8.346;2023-05-10T00:25:17;10.50;99.90
9699;DHT22;10089;47.876;8.346;2023-05-10T00:27:43;10.50;99.90
9699;DHT22;10089;47.876;8.346;2023-05-10T00:30:09;10.50;99.90
9699;DHT22;10089;47.876;8.346;2023-05-10T00:32:35;10.50;99.90
9699;DHT22;10089;47.876;8.346;2023-05-10T00:35:00;10.50;99.90
9699;DHT22;10089;47.876;8.346;2023-05-10T00:37:26;10.50;99.90
9699;DHT22;10089;47.876;8.346;2023-05-10T00:39:52;10.50;99.90
9699;DHT22;10089;47.876;8.346;2023-05-10T00:42:17;10.50;99.90
9699;DHT22;10089;47.876;8.346;2023-05-10T00:44:43;10.50;99.90
9699;DHT22;10089;47.876;8.346;2023-05-10T00:47:09;10.50;99.90
9699;DHT22;10089;47.876;8.346;2023-05-10T00:49:35;10.50;99.90
9699;DHT22;10089;47.876;8.346;2023-05-10T00:52:02;10.60;99.90
9699;DHT22;10089;47.876;8.346;2023-05-10T00:54:28;10.50;99.90
9699;DHT22;10089;47.876;8.346;2023-05-10T00:56:54;10.50;99.90
9699;DHT22;10089;47.876;8.346;2023-05-10T00:59:20;10.50;99.90
9699;DHT22;10089;47.876;8.346;2023-05-10T01:01:47;10.50;99.90
9699;DHT22;10089;47.876;8.346;2023-05-10T01:04:13;10.30;99.90
9699;DHT22;10089;47.876;8.346;2023-05-10T01:06:43;10.40;99.90
9699;DHT22;10089;47.876;8.346;2023-05-10T01:09:09;10.30;99.90
9699;DHT22;10089;47.876;8.346;2023-05-10T01:11:37;10.40;99.90
9699;DHT22;10089;47.876;8.346;2023-05-10T01:14:03;10.50;99.90
9699;DHT22;10089;47.876;8.346;2023-05-10T01:16:32;10.50;99.90
9699;DHT22;10089;47.876;8.346;2023-05-10T01:18:59;10.50;99.90
9699;DHT22;10089;47.876;8.346;2023-05-10T01:21:49;10.50;99.90
9699;DHT22;10089;47.876;8.346;2023-05-10T01:33:39;10.30;99.90
9699;DHT22;10089;47.876;8.346;2023-05-10T01:46:41;10.30;99.90
9699;DHT22;10089;47.876;8.346;2023-05-10T01:49:29;10.20;99.90
9699;DHT22;10089;47.876;8.346;2023-05-10T01:52:00;10.20;99.90
9699;DHT22;10089;47.876;8.346;2023-05-10T01:54:28;10.30;99.90
9699;DHT22;10089;47.876;8.346;2023-05-10T01:57:03;10.30;99.90
9699;DHT22;10089;47.876;8.346;2023-05-10T01:59:34;10.30;99.90
9699;DHT22;10089;47.876;8.346;2023-05-10T02:02:07;10.30;99.90
9699;DHT22;10089;47.876;8.346;2023-05-10T02:04:38;10.30;99.90
9699;DHT22;10089;47.876;8.346;2023-05-10T02:07:05;10.30;99.90
9699;DHT22;10089;47.876;8.346;2023-05-10T02:09:33;10.30;99.90
9699;DHT22;10089;47.876;8.346;2023-05-10T02:12:02;10.20;99.90
9699;DHT22;10089;47.876;8.346;2023-05-10T02:14:31;10.10;99.90
9699;DHT22;10089;47.876;8.346;2023-05-10T02:16:59;10.00;99.90
9699;DHT22;10089;47.876;8.346;2023-05-10T02:19:26;10.00;99.90
9699;DHT22;10089;47.876;8.346;2023-05-10T02:21:55;10.10;99.90
9699;DHT22;10089;47.876;8.346;2023-05-10T02:24:21;9.90;99.90
9699;DHT22;10089;47.876;8.346;2023-05-10T02:26:50;9.70;99.90
9699;DHT22;10089;47.876;8.346;2023-05-10T02:29:17;9.80;99.90
9699;DHT22;10089;47.876;8.346;2023-05-10T02:31:44;9.90;99.90
9699;DHT22;10089;47.876;8.346;2023-05-10T02:34:11;10.00;99.90
9699;DHT22;10089;47.876;8.346;2023-05-10T02:36:38;10.00;99.90
9699;DHT22;10089;47.876;8.346;2023-05-10T02:39:05;10.00;99.90
9699;DHT22;10089;47.876;8.346;2023-05-10T02:41:35;10.00;99.90
9699;DHT22;10089;47.876;8.346;2023-05-10T02:44:02;10.00;99.90
9699;DHT22;10089;47.876;8.346;2023-05-10T02:46:29;10.10;99.90
9699;DHT22;10089;47.876;8.346;2023-05-10T02:48:55;10.10;99.90
9699;DHT22;10089;47.876;8.346;2023-05-10T02:51:25;10.10;99.90
9699;DHT22;10089;47.876;8.346;2023-05-10T02:53:53;10.10;99.90
9699;DHT22;10089;47.876;8.346;2023-05-10T02:56:50;10.10;99.90
9699;DHT22;10089;47.876;8.346;2023-05-10T02:59:16;10.20;99.90
9699;DHT22;10089;47.876;8.346;2023-05-10T03:01:42;10.10;99.90
9699;DHT22;10089;47.876;8.346;2023-05-10T03:04:08;10.10;99.90
9699;DHT22;10089;47.876;8.346;2023-05-10T03:06:33;10.10;99.90
9699;DHT22;10089;47.876;8.346;2023-05-10T03:09:00;10.10;99.90
9699;DHT22;10089;47.876;8.346;2023-05-10T03:11:37;10.00;99.90
9699;DHT22;10089;47.876;8.346;2023-05-10T03:17:22;10.00;99.90
9699;DHT22;10089;47.876;8.346;2023-05-10T03:19:56;10.00;99.90
9699;DHT22;10089;47.876;8.346;2023-05-10T03:22:43;10.00;99.90
9699;DHT22;10089;47.876;8.346;2023-05-10T03:25:10;9.90;99.90
9699;DHT22;10089;47.876;8.346;2023-05-10T03:27:39;9.90;99.90
9699;DHT22;10089;47.876;8.346;2023-05-10T03:30:08;9.90;99.90
9699;DHT22;10089;47.876;8.346;2023-05-10T03:32:35;10.00;99.90
9699;DHT22;10089;47.876;8.346;2023-05-10T03:35:10;9.80;99.90
9699;DHT22;10089;47.876;8.346;2023-05-10T03:37:36;9.80;99.90
9699;DHT22;10089;47.876;8.346;2023-05-10T03:40:02;9.80;99.90
9699;DHT22;10089;47.876;8.346;2023-05-10T03:42:28;9.90;99.90
9699;DHT22;10089;47.876;8.346;2023-05-10T03:44:54;9.70;99.90
9699;DHT22;10089;47.876;8.346;2023-05-10T03:47:19;9.80;99.90
9699;DHT22;10089;47.876;8.346;2023-05-10T03:49:45;9.70;99.90
9699;DHT22;10089;47.876;8.346;2023-05-10T03:52:11;9.60;99.90
9699;DHT22;10089;47.876;8.346;2023-05-10T03:54:37;9.60;99.90
9699;DHT22;10089;47.876;8.346;2023-05-10T03:57:03;9.60;99.90
9699;DHT22;10089;47.876;8.346;2023-05-10T03:59:29;9.60;99.90
9699;DHT22;10089;47.876;8.346;2023-05-10T04:01:55;9.60;99.90
9699;DHT22;10089;47.876;8.346;2023-05-10T04:04:21;9.70;99.90
9699;DHT22;10089;47.876;8.346;2023-05-10T04:06:47;9.70;99.90
9699;DHT22;10089;47.876;8.346;2023-05-10T04:09:13;9.80;99.90
9699;DHT22;10089;47.876;8.346;2023-05-10T04:11:39;9.80;99.90
9699;DHT22;10089;47.876;8.346;2023-05-10T04:14:05;9.80;99.90
9699;DHT22;10089;47.876;8.346;2023-05-10T04:16:30;9.80;99.90
9699;DHT22;10089;47.876;8.346;2023-05-10T04:18:56;9.90;99.90
9699;DHT22;10089;47.876;8.346;2023-05-10T04:21:22;10.00;99.90
9699;DHT22;10089;47.876;8.346;2023-05-10T04:23:48;9.90;99.90
9699;DHT22;10089;47.876;8.346;2023-05-10T04:26:14;9.80;99.90
9699;DHT22;10089;47.876;8.346;2023-05-10T04:28:40;9.80;99.90
9699;DHT22;10089;47.876;8.346;2023-05-10T04:31:08;9.80;99.90
9699;DHT22;10089;47.876;8.346;2023-05-10T04:33:35;9.80;99.90
9699;DHT22;10089;47.876;8.346;2023-05-10T04:36:01;9.80;99.90
9699;DHT22;10089;47.876;8.346;2023-05-10T04:38:27;9.80;99.90
9699;DHT22;10089;47.876;8.346;2023-05-10T04:40:53;9.80;99.90
9699;DHT22;10089;47.876;8.346;2023-05-10T04:43:19;9.80;99.90
9699;DHT22;10089;47.876;8.346;2023-05-10T04:45:44;9.70;99.90
9699;DHT22;10089;47.876;8.346;2023-05-10T04:48:10;9.60;99.90
9699;DHT22;10089;47.876;8.346;2023-05-10T04:50:36;9.60;99.90
9699;DHT22;10089;47.876;8.346;2023-05-10T04:53:02;9.50;99.90
9699;DHT22;10089;47.876;8.346;2023-05-10T04:55:28;9.40;99.90
9699;DHT22;10089;47.876;8.346;2023-05-10T04:57:53;9.50;99.90
9699;DHT22;10089;47.876;8.346;2023-05-10T05:00:22;9.50;99.90
9699;DHT22;10089;47.876;8.346;2023-05-10T05:02:48;9.50;99.90
9699;DHT22;10089;47.876;8.346;2023-05-10T05:05:14;9.60;99.90
9699;DHT22;10089;47.876;8.346;2023-05-10T05:07:40;9.70;99.90
9699;DHT22;10089;47.876;8.346;2023-05-10T05:10:07;9.80;99.90
9699;DHT22;10089;47.876;8.346;2023-05-10T05:12:33;9.80;99.90
9699;DHT22;10089;47.876;8.346;2023-05-10T05:14:59;9.80;99.90
9699;DHT22;10089;47.876;8.346;2023-05-10T05:17:25;9.70;99.90
9699;DHT22;10089;47.876;8.346;2023-05-10T05:19:50;9.80;99.90
9699;DHT22;10089;47.876;8.346;2023-05-10T05:22:16;9.80;99.90
9699;DHT22;10089;47.876;8.346;2023-05-10T05:24:42;9.90;99.90
9699;DHT22;10089;47.876;8.346;2023-05-10T05:27:08;9.80;99.90
9699;DHT22;10089;47.876;8.346;2023-05-10T05:29:33;9.80;99.90
9699;DHT22;10089;47.876;8.346;2023-05-10T05:31:59;9.80;99.90
9699;DHT22;10089;47.876;8.346;2023-05-10T05:34:25;9.70;99.90
9699;DHT22;10089;47.876;8.346;2023-05-10T05:36:51;9.90;99.90
9699;DHT22;10089;47.876;8.346;2023-05-10T05:39:17;10.00;99.90
9699;DHT22;10089;47.876;8.346;2023-05-10T05:41:42;9.80;99.90
9699;DHT22;10089;47.876;8.346;2023-05-10T05:44:09;9.90;99.90
9699;DHT22;10089;47.876;8.346;2023-05-10T05:46:35;9.80;99.90
9699;DHT22;10089;47.876;8.346;2023-05-10T05:49:01;9.80;99.90
9699;DHT22;10089;47.876;8.346;2023-05-10T05:51:27;9.80;99.90
9699;DHT22;10089;47.876;8.346;2023-05-10T05:53:52;10.00;99.90
9699;DHT22;10089;47.876;8.346;2023-05-10T05:56:18;10.10;99.90
9699;DHT22;10089;47.876;8.346;2023-05-10T05:58:50;10.10;99.90
9699;DHT22;10089;47.876;8.346;2023-05-10T06:01:16;10.00;99.90
9699;DHT22;10089;47.876;8.346;2023-05-10T06:03:42;9.80;99.90
9699;DHT22;10089;47.876;8.346;2023-05-10T06:06:07;10.00;99.90
9699;DHT22;10089;47.876;8.346;2023-05-10T06:08:33;10.20;99.90
9699;DHT22;10089;47.876;8.346;2023-05-10T06:11:00;10.10;99.90
9699;DHT22;10089;47.876;8.346;2023-05-10T06:13:25;10.30;99.90
9699;DHT22;10089;47.876;8.346;2023-05-10T06:15:58;10.20;99.90
9699;DHT22;10089;47.876;8.346;2023-05-10T06:18:24;10.40;99.90
9699;DHT22;10089;47.876;8.346;2023-05-10T06:20:50;10.40;99.90
9699;DHT22;10089;47.876;8.346;2023-05-10T06:23:17;10.20;99.90
9699;DHT22;10089;47.876;8.346;2023-05-10T06:25:42;10.30;99.90
9699;DHT22;10089;47.876;8.346;2023-05-10T06:28:08;10.30;99.90
9699;DHT22;10089;47.876;8.346;2023-05-10T06:30:36;10.20;99.90
9699;DHT22;10089;47.876;8.346;2023-05-10T06:33:02;10.20;99.90
9699;DHT22;10089;47.876;8.346;2023-05-10T06:35:28;10.30;99.90
9699;DHT22;10089;47.876;8.346;2023-05-10T06:37:54;10.40;99.90
9699;DHT22;10089;47.876;8.346;2023-05-10T06:40:20;10.60;99.90
9699;DHT22;10089;47.876;8.346;2023-05-10T06:42:47;10.60;99.90
9699;DHT22;10089;47.876;8.346;2023-05-10T06:45:14;10.70;99.90
9699;DHT22;10089;47.876;8.346;2023-05-10T06:47:40;10.80;99.90
9699;DHT22;10089;47.876;8.346;2023-05-10T06:50:09;10.60;99.90
9699;DHT22;10089;47.876;8.346;2023-05-10T06:52:37;10.40;99.90
9699;DHT22;10089;47.876;8.346;2023-05-10T06:55:03;10.40;99.90
9699;DHT22;10089;47.876;8.346;2023-05-10T06:57:29;10.40;99.90
9699;DHT22;10089;47.876;8.346;2023-05-10T06:59:55;10.30;99.90
9699;DHT22;10089;47.876;8.346;2023-05-10T07:02:22;10.60;99.90
9699;DHT22;10089;47.876;8.346;2023-05-10T07:04:48;10.80;99.90
9699;DHT22;10089;47.876;8.346;2023-05-10T07:07:14;11.00;99.90
9699;DHT22;10089;47.876;8.346;2023-05-10T07:09:40;11.00;99.90
9699;DHT22;10089;47.876;8.346;2023-05-10T07:12:06;11.00;99.90
9699;DHT22;10089;47.876;8.346;2023-05-10T07:14:32;11.20;99.90
9699;DHT22;10089;47.876;8.346;2023-05-10T07:16:57;11.20;99.90
9699;DHT22;10089;47.876;8.346;2023-05-10T07:19:23;11.30;99.90
9699;DHT22;10089;47.876;8.346;2023-05-10T07:21:49;11.30;99.90
9699;DHT22;10089;47.876;8.346;2023-05-10T07:24:16;11.60;99.90
9699;DHT22;10089;47.876;8.346;2023-05-10T07:26:42;11.60;99.90
9699;DHT22;10089;47.876;8.346;2023-05-10T07:29:07;11.70;99.90
9699;DHT22;10089;47.876;8.346;2023-05-10T07:31:33;11.80;99.90
9699;DHT22;10089;47.876;8.346;2023-05-10T07:33:58;11.80;99.90
9699;DHT22;10089;47.876;8.346;2023-05-10T07:36:24;11.80;99.90
9699;DHT22;10089;47.876;8.346;2023-05-10T07:38:50;11.90;99.90
9699;DHT22;10089;47.876;8.346;2023-05-10T07:41:34;11.60;99.90
9699;DHT22;10089;47.876;8.346;2023-05-10T07:44:12;11.30;99.90
9699;DHT22;10089;47.876;8.346;2023-05-10T07:46:38;11.60;99.90
9699;DHT22;10089;47.876;8.346;2023-05-10T07:49:04;11.70;99.90
9699;DHT22;10089;47.876;8.346;2023-05-10T07:51:30;11.60;99.90
9699;DHT22;10089;47.876;8.346;2023-05-10T07:53:56;11.70;99.90
9699;DHT22;10089;47.876;8.346;2023-05-10T07:56:24;11.70;99.90
9699;DHT22;10089;47.876;8.346;2023-05-10T07:58:51;11.80;99.90
9699;DHT22;10089;47.876;8.346;2023-05-10T08:01:18;12.10;99.90
9699;DHT22;10089;47.876;8.346;2023-05-10T08:03:43;12.20;99.90
9699;DHT22;10089;47.876;8.346;2023-05-10T08:06:09;12.20;99.90
9699;DHT22;10089;47.876;8.346;2023-05-10T08:08:35;12.40;99.90
9699;DHT22;10089;47.876;8.346;2023-05-10T08:11:01;12.60;99.90
9699;DHT22;10089;47.876;8.346;2023-05-10T08:13:27;12.60;85.60
9699;DHT22;10089;47.876;8.346;2023-05-10T08:15:52;12.80;99.90
9699;DHT22;10089;47.876;8.346;2023-05-10T08:18:19;12.70;53.70
9699;DHT22;10089;47.876;8.346;2023-05-10T08:20:45;12.80;46.50
9699;DHT22;10089;47.876;8.346;2023-05-10T08:23:12;12.60;1.00
9699;DHT22;10089;47.876;8.346;2023-05-10T08:25:38;12.40;60.70
9699;DHT22;10089;47.876;8.346;2023-05-10T08:28:04;12.40;99.90
9699;DHT22;10089;47.876;8.346;2023-05-10T08:30:30;12.10;13.90
9699;DHT22;10089;47.876;8.346;2023-05-10T08:32:55;12.10;99.90
9699;DHT22;10089;47.876;8.346;2023-05-10T08:35:21;12.20;99.90
9699;DHT22;10089;47.876;8.346;2023-05-10T08:37:47;12.40;99.90
9699;DHT22;10089;47.876;8.346;2023-05-10T08:40:13;12.30;27.80
9699;DHT22;10089;47.876;8.346;2023-05-10T08:42:42;12.20;1.00
9699;DHT22;10089;47.876;8.346;2023-05-10T08:45:10;12.10;1.00
9699;DHT22;10089;47.876;8.346;2023-05-10T08:47:36;12.10;1.00
9699;DHT22;10089;47.876;8.346;2023-05-10T08:50:03;11.90;1.00
9699;DHT22;10089;47.876;8.346;2023-05-10T08:52:30;11.80;96.00
9699;DHT22;10089;47.876;8.346;2023-05-10T08:54:58;11.80;99.50
9699;DHT22;10089;47.876;8.346;2023-05-10T08:57:24;11.90;99.90
9699;DHT22;10089;47.876;8.346;2023-05-10T08:59:50;12.00;94.20
9699;DHT22;10089;47.876;8.346;2023-05-10T09:02:17;12.00;1.00
9699;DHT22;10089;47.876;8.346;2023-05-10T09:04:43;12.00;67.00
9699;DHT22;10089;47.876;8.346;2023-05-10T09:07:10;11.90;1.00
9699;DHT22;10089;47.876;8.346;2023-05-10T09:09:36;12.00;1.00
9699;DHT22;10089;47.876;8.346;2023-05-10T09:12:02;12.00;1.00
9699;DHT22;10089;47.876;8.346;2023-05-10T09:14:29;12.20;1.00
9699;DHT22;10089;47.876;8.346;2023-05-10T09:16:56;12.50;1.00
9699;DHT22;10089;47.876;8.346;2023-05-10T09:19:22;12.80;1.00
9699;DHT22;10089;47.876;8.346;2023-05-10T09:21:49;13.00;1.00
9699;DHT22;10089;47.876;8.346;2023-05-10T09:24:15;13.10;1.00
9699;DHT22;10089;47.876;8.346;2023-05-10T09:26:46;13.10;1.00
9699;DHT22;10089;47.876;8.346;2023-05-10T09:29:15;13.00;1.00
9699;DHT22;10089;47.876;8.346;2023-05-10T09:31:47;12.90;1.00
9699;DHT22;10089;47.876;8.346;2023-05-10T09:34:22;12.90;99.90
9699;DHT22;10089;47.876;8.346;2023-05-10T09:36:56;12.90;1.00
9699;DHT22;10089;47.876;8.346;2023-05-10T09:39:30;12.80;1.00
9699;DHT22;10089;47.876;8.346;2023-05-10T09:41:58;12.80;1.00
9699;DHT22;10089;47.876;8.346;2023-05-10T09:44:25;12.70;1.00
9699;DHT22;10089;47.876;8.346;2023-05-10T09:46:51;12.60;99.90
9699;DHT22;10089;47.876;8.346;2023-05-10T09:49:21;12.50;1.00
9699;DHT22;10089;47.876;8.346;2023-05-10T09:51:47;12.50;99.90
9699;DHT22;10089;47.876;8.346;2023-05-10T09:54:16;12.40;99.90
9699;DHT22;10089;47.876;8.346;2023-05-10T09:56:42;12.50;24.80
9699;DHT22;10089;47.876;8.346;2023-05-10T09:59:10;12.70;99.90
9699;DHT22;10089;47.876;8.346;2023-05-10T10:01:37;12.90;99.90
9699;DHT22;10089;47.876;8.346;2023-05-10T10:04:06;12.90;99.90
9699;DHT22;10089;47.876;8.346;2023-05-10T10:06:42;12.70;1.00
9699;DHT22;10089;47.876;8.346;2023-05-10T10:09:08;12.00;99.90
9699;DHT22;10089;47.876;8.346;2023-05-10T10:11:38;11.90;99.90
9699;DHT22;10089;47.876;8.346;2023-05-10T10:14:04;12.10;99.90
9699;DHT22;10089;47.876;8.346;2023-05-10T10:16:31;12.50;58.80
9699;DHT22;10089;47.876;8.346;2023-05-10T10:18:57;12.90;99.90
9699;DHT22;10089;47.876;8.346;2023-05-10T10:21:23;13.30;1.00
9699;DHT22;10089;47.876;8.346;2023-05-10T10:23:49;13.50;99.90
9699;DHT22;10089;47.876;8.346;2023-05-10T10:26:16;13.40;1.00
9699;DHT22;10089;47.876;8.346;2023-05-10T10:29:05;13.70;99.90
9699;DHT22;10089;47.876;8.346;2023-05-10T10:34:28;13.80;1.00
9699;DHT22;10089;47.876;8.346;2023-05-10T10:36:55;13.80;1.00
9699;DHT22;10089;47.876;8.346;2023-05-10T10:39:23;14.00;30.90
9699;DHT22;10089;47.876;8.346;2023-05-10T10:41:59;14.10;91.70
9699;DHT22;10089;47.876;8.346;2023-05-10T10:44:26;14.20;1.00
9699;DHT22;10089;47.876;8.346;2023-05-10T10:52:25;13.90;99.90
9699;DHT22;10089;47.876;8.346;2023-05-10T10:57:50;14.10;99.90
9699;DHT22;10089;47.876;8.346;2023-05-10T11:00:29;13.90;99.90
9699;DHT22;10089;47.876;8.346;2023-05-10T11:03:05;13.90;99.90
9699;DHT22;10089;47.876;8.346;2023-05-10T11:05:50;13.70;1.00
9699;DHT22;10089;47.876;8.346;2023-05-10T11:11:02;14.00;99.90
9699;DHT22;10089;47.876;8.346;2023-05-10T11:13:45;14.10;99.90
9699;DHT22;10089;47.876;8.346;2023-05-10T11:16:22;14.10;1.00
9699;DHT22;10089;47.876;8.346;2023-05-10T11:21:25;13.80;1.00
9699;DHT22;10089;47.876;8.346;2023-05-10T11:23:58;13.70;99.90
9699;DHT22;10089;47.876;8.346;2023-05-10T11:26:29;13.70;99.90
9699;DHT22;10089;47.876;8.346;2023-05-10T11:28:55;13.90;1.00
9699;DHT22;10089;47.876;8.346;2023-05-10T11:31:22;14.10;1.00
9699;DHT22;10089;47.876;8.346;2023-05-10T11:33:53;14.20;1.00
9699;DHT22;10089;47.876;8.346;2023-05-10T11:36:32;14.20;20.60
9699;DHT22;10089;47.876;8.346;2023-05-10T11:38:58;14.10;1.00
9699;DHT22;10089;47.876;8.346;2023-05-10T11:41:24;14.10;99.90
9699;DHT22;10089;47.876;8.346;2023-05-10T11:43:52;14.00;1.00
9699;DHT22;10089;47.876;8.346;2023-05-10T11:46:23;13.90;1.00
9699;DHT22;10089;47.876;8.346;2023-05-10T11:48:51;14.00;99.90
9699;DHT22;10089;47.876;8.346;2023-05-10T11:51:24;14.00;1.00
9699;DHT22;10089;47.876;8.346;2023-05-10T11:53:54;14.10;1.00
9699;DHT22;10089;47.876;8.346;2023-05-10T11:56:20;14.30;1.00
9699;DHT22;10089;47.876;8.346;2023-05-10T11:58:55;14.30;84.40
9699;DHT22;10089;47.876;8.346;2023-05-10T12:01:22;14.30;1.00
9699;DHT22;10089;47.876;8.346;2023-05-10T12:03:49;14.00;1.00
9699;DHT22;10089;47.876;8.346;2023-05-10T12:06:15;13.80;99.90
9699;DHT22;10089;47.876;8.346;2023-05-10T12:08:46;13.90;18.20
9699;DHT22;10089;47.876;8.346;2023-05-10T12:11:13;13.80;99.90
9699;DHT22;10089;47.876;8.346;2023-05-10T12:13:41;13.90;1.00
9699;DHT22;10089;47.876;8.346;2023-05-10T12:16:16;13.80;1.00
9699;DHT22;10089;47.876;8.346;2023-05-10T12:18:41;13.80;1.00
9699;DHT22;10089;47.876;8.346;2023-05-10T12:21:11;13.80;99.90
9699;DHT22;10089;47.876;8.346;2023-05-10T12:23:38;13.90;1.00
9699;DHT22;10089;47.876;8.346;2023-05-10T12:26:04;14.00;1.00
9699;DHT22;10089;47.876;8.346;2023-05-10T12:28:31;14.10;99.90
9699;DHT22;10089;47.876;8.346;2023-05-10T12:30:58;14.10;1.00
9699;DHT22;10089;47.876;8.346;2023-05-10T12:33:25;13.80;99.90
9699;DHT22;10089;47.876;8.346;2023-05-10T12:35:54;13.60;99.90
9699;DHT22;10089;47.876;8.346;2023-05-10T12:38:28;13.60;1.00
9699;DHT22;10089;47.876;8.346;2023-05-10T12:41:16;13.90;99.90
9699;DHT22;10089;47.876;8.346;2023-05-10T12:43:42;14.30;99.90
9699;DHT22;10089;47.876;8.346;2023-05-10T12:46:10;14.50;1.00
9699;DHT22;10089;47.876;8.346;2023-05-10T12:48:36;14.40;1.00
9699;DHT22;10089;47.876;8.346;2023-05-10T12:51:03;14.60;1.00
9699;DHT22;10089;47.876;8.346;2023-05-10T12:53:29;14.60;7.60
9699;DHT22;10089;47.876;8.346;2023-05-10T12:55:55;14.80;99.90
9699;DHT22;10089;47.876;8.346;2023-05-10T12:58:24;14.90;1.00
9699;DHT22;10089;47.876;8.346;2023-05-10T13:00:50;14.70;1.00
9699;DHT22;10089;47.876;8.346;2023-05-10T13:03:17;14.60;99.90
9699;DHT22;10089;47.876;8.346;2023-05-10T13:05:43;14.50;99.90
9699;DHT22;10089;47.876;8.346;2023-05-10T13:08:08;14.80;1.00
9699;DHT22;10089;47.876;8.346;2023-05-10T13:10:34;14.30;99.90
9699;DHT22;10089;47.876;8.346;2023-05-10T13:13:00;13.80;99.90
9699;DHT22;10089;47.876;8.346;2023-05-10T13:15:26;14.00;99.90
9699;DHT22;10089;47.876;8.346;2023-05-10T13:17:53;14.20;1.00
9699;DHT22;10089;47.876;8.346;2023-05-10T13:20:19;14.10;1.00
9699;DHT22;10089;47.876;8.346;2023-05-10T13:22:45;14.20;99.90
9699;DHT22;10089;47.876;8.346;2023-05-10T13:25:11;14.50;1.00
9699;DHT22;10089;47.876;8.346;2023-05-10T13:27:41;14.70;11.60
9699;DHT22;10089;47.876;8.346;2023-05-10T13:30:08;14.90;1.00
9699;DHT22;10089;47.876;8.346;2023-05-10T13:32:34;14.90;1.00
9699;DHT22;10089;47.876;8.346;2023-05-10T13:35:00;14.90;1.00
9699;DHT22;10089;47.876;8.346;2023-05-10T13:37:26;14.70;1.00
9699;DHT22;10089;47.876;8.346;2023-05-10T13:39:52;14.30;14.60
9699;DHT22;10089;47.876;8.346;2023-05-10T13:42:18;13.70;99.90
9699;DHT22;10089;47.876;8.346;2023-05-10T13:44:44;12.90;1.00
9699;DHT22;10089;47.876;8.346;2023-05-10T13:47:09;12.60;99.90
9699;DHT22;10089;47.876;8.346;2023-05-10T13:49:35;12.20;99.90
9699;DHT22;10089;47.876;8.346;2023-05-10T13:52:01;12.20;1.00
9699;DHT22;10089;47.876;8.346;2023-05-10T13:54:37;12.20;99.90
9699;DHT22;10089;47.876;8.346;2023-05-10T13:57:03;12.20;99.90
9699;DHT22;10089;47.876;8.346;2023-05-10T13:59:30;12.10;99.90
9699;DHT22;10089;47.876;8.346;2023-05-10T14:01:59;12.20;99.90
9699;DHT22;10089;47.876;8.346;2023-05-10T14:04:25;12.30;1.00
9699;DHT22;10089;47.876;8.346;2023-05-10T14:06:51;12.40;99.90
9699;DHT22;10089;47.876;8.346;2023-05-10T14:09:18;12.70;1.00
9699;DHT22;10089;47.876;8.346;2023-05-10T14:11:44;12.90;1.00
9699;DHT22;10089;47.876;8.346;2023-05-10T14:14:11;13.00;1.00
9699;DHT22;10089;47.876;8.346;2023-05-10T14:16:37;13.00;1.00
9699;DHT22;10089;47.876;8.346;2023-05-10T14:19:02;13.40;94.30
9699;DHT22;10089;47.876;8.346;2023-05-10T14:21:28;13.90;91.40
9699;DHT22;10089;47.876;8.346;2023-05-10T14:23:56;14.00;99.90
9699;DHT22;10089;47.876;8.346;2023-05-10T14:26:21;14.30;99.90
9699;DHT22;10089;47.876;8.346;2023-05-10T14:28:47;14.40;99.90
9699;DHT22;10089;47.876;8.346;2023-05-10T14:31:13;14.30;99.90
9699;DHT22;10089;47.876;8.346;2023-05-10T14:33:40;14.40;1.00
9699;DHT22;10089;47.876;8.346;2023-05-10T14:36:06;14.50;1.00
9699;DHT22;10089;47.876;8.346;2023-05-10T14:38:32;14.50;99.90
9699;DHT22;10089;47.876;8.346;2023-05-10T14:40:58;14.70;1.00
9699;DHT22;10089;47.876;8.346;2023-05-10T14:43:23;14.60;1.00
9699;DHT22;10089;47.876;8.346;2023-05-10T14:45:49;14.60;1.00
9699;DHT22;10089;47.876;8.346;2023-05-10T14:48:15;14.50;99.90
9699;DHT22;10089;47.876;8.346;2023-05-10T14:50:43;14.20;99.90
9699;DHT22;10089;47.876;8.346;2023-05-10T14:53:09;14.10;1.00
9699;DHT22;10089;47.876;8.346;2023-05-10T14:55:35;14.20;1.00
9699;DHT22;10089;47.876;8.346;2023-05-10T14:58:02;14.30;99.90
9699;DHT22;10089;47.876;8.346;2023-05-10T15:00:29;14.60;1.00
9699;DHT22;10089;47.876;8.346;2023-05-10T15:02:55;14.60;99.90
9699;DHT22;10089;47.876;8.346;2023-05-10T15:05:21;14.30;99.90
9699;DHT22;10089;47.876;8.346;2023-05-10T15:07:47;14.30;1.00
9699;DHT22;10089;47.876;8.346;2023-05-10T15:10:13;14.20;99.90
9699;DHT22;10089;47.876;8.346;2023-05-10T15:12:39;14.10;1.00
9699;DHT22;10089;47.876;8.346;2023-05-10T15:15:06;13.80;1.00
9699;DHT22;10089;47.876;8.346;2023-05-10T15:17:34;13.80;99.90
9699;DHT22;10089;47.876;8.346;2023-05-10T15:20:00;13.80;1.00
9699;DHT22;10089;47.876;8.346;2023-05-10T15:22:28;13.60;1.00
9699;DHT22;10089;47.876;8.346;2023-05-10T15:24:54;13.40;1.00
9699;DHT22;10089;47.876;8.346;2023-05-10T15:27:20;13.20;99.90
9699;DHT22;10089;47.876;8.346;2023-05-10T15:29:46;13.20;99.90
9699;DHT22;10089;47.876;8.346;2023-05-10T15:32:24;13.20;1.00
9699;DHT22;10089;47.876;8.346;2023-05-10T15:34:49;13.30;1.00
9699;DHT22;10089;47.876;8.346;2023-05-10T15:37:33;13.50;1.00
9699;DHT22;10089;47.876;8.346;2023-05-10T15:39:58;13.40;99.90
9699;DHT22;10089;47.876;8.346;2023-05-10T15:42:31;13.30;1.00
9699;DHT22;10089;47.876;8.346;2023-05-10T15:44:57;13.20;1.00
9699;DHT22;10089;47.876;8.346;2023-05-10T15:47:23;13.20;1.00
9699;DHT22;10089;47.876;8.346;2023-05-10T15:49:49;13.00;99.90
9699;DHT22;10089;47.876;8.346;2023-05-10T15:52:15;13.00;99.90
9699;DHT22;10089;47.876;8.346;2023-05-10T15:54:41;13.20;99.90
9699;DHT22;10089;47.876;8.346;2023-05-10T15:57:06;13.20;99.90
9699;DHT22;10089;47.876;8.346;2023-05-10T15:59:32;13.30;99.90
9699;DHT22;10089;47.876;8.346;2023-05-10T16:01:58;13.30;1.00
9699;DHT22;10089;47.876;8.346;2023-05-10T16:04:24;13.30;1.00
9699;DHT22;10089;47.876;8.346;2023-05-10T16:06:50;13.30;1.00
9699;DHT22;10089;47.876;8.346;2023-05-10T16:09:15;13.20;99.90
9699;DHT22;10089;47.876;8.346;2023-05-10T16:11:42;13.10;1.00
9699;DHT22;10089;47.876;8.346;2023-05-10T16:14:08;13.20;99.90
9699;DHT22;10089;47.876;8.346;2023-05-10T16:16:34;13.00;1.00
9699;DHT22;10089;47.876;8.346;2023-05-10T16:19:00;13.00;1.00
9699;DHT22;10089;47.876;8.346;2023-05-10T16:21:27;12.90;99.90
9699;DHT22;10089;47.876;8.346;2023-05-10T16:23:54;12.80;1.00
9699;DHT22;10089;47.876;8.346;2023-05-10T16:26:20;12.70;99.90
9699;DHT22;10089;47.876;8.346;2023-05-10T16:28:47;12.50;99.90
9699;DHT22;10089;47.876;8.346;2023-05-10T16:31:12;12.50;1.00
9699;DHT22;10089;47.876;8.346;2023-05-10T16:33:38;12.50;1.00